Edwards Air Force Base
KEDW : now visible

Airfield :











YOU CAN JOIN US ON...

 
LOGIN :

Register | Disclaimer

   EN    FR    IT 

 









Legend :    VFR   Marginal VFR   IFR   Intensive IFR   Very Intensive IFR
Visi :
Ceiling :
>= 8 km
>= 3000ft
5 to 8 km
1000 to 3000 ft
1500m to 5 km
500 to 1000 ft
800 to 1500m
200 to 500 ft
< 800m
< 200 ft
Symbols :   Thunderstorms  Fog  Heavy snow  Heavy precipitations  Wind > 20 kt






- Airport Elevation : 2312 ft


KEDW - Edwards Air Force Base

CURRENT METAR :
  • 220356Z 26013KT 60SM BKN250 09/04 A3010 RMK AO2A SLP195 T00940036

EXPIRED METARs :
  • 220256Z 25019KT 60SM BKN250 10/03 A3007 RMK AO2A SLP183 T01000026 51008
  • 220156Z 25012KT 60SM FEW050 FEW240 11/03 A3006 RMK AO2A SLP177 T01130026

TAF TAF KEDW
Valid from the 21 at 22:00 until the 23 at 04:00 UTC


212145Z 2122/2304 26015G25KT 9999 SCT050 SCT150 BKN250 520009 QNH3002INS
BECMG 2201/2202 26012G18KT 9999 SCT050 SCT150 BKN250 510009 QNH3004INS
BECMG 2206/2207 24012KT 9999 SCT050 SCT150 BKN250 QNH3009INS
BECMG 2213/2214 VRB06KT 9999 FEW050 SCT150 BKN250 QNH3011INS
BECMG 2300/2301 VRB06KT 9999 FEW150 FEW250 QNH3015NS TX15/2122Z TN03/2214Z



MET'MAP, your aeronautical weather chart ! - Copyright ORBIFLY December 2007 - Disclaimer

ORBIFLY MET'MAP TEAM :

Programming & Development : Alexandra Zaïnal
Concept & original design : Baudouin d'Aumeries
Assistance for programming : Marc-Olivier Méhu
Technical & hardware support : Manuel Goepfert

Contact : metmap@orbifly.com




SOURCES & CREDITS :

   NOAA       Earth
Advisory